sensor_id;sensor_type;location;lat;lon;timestamp;P1;durP1;ratioP1;P2;durP2;ratioP2
10440;SDS011;5268;49.346;9.522;2023-01-30T04:09:38;13.77;;;9.07;;
10440;SDS011;5268;49.346;9.522;2023-01-30T04:14:40;14.93;;;9.23;;
10440;SDS011;5268;49.346;9.522;2023-01-30T04:19:42;15.05;;;11.73;;
10440;SDS011;5268;49.346;9.522;2023-01-30T04:24:45;13.77;;;10.73;;
10440;SDS011;5268;49.346;9.522;2023-01-30T04:29:47;13.55;;;10.07;;
10440;SDS011;5268;49.346;9.522;2023-01-30T04:34:49;12.43;;;8.73;;
10440;SDS011;5268;49.346;9.522;2023-01-30T04:39:53;12.38;;;8.38;;
10440;SDS011;5268;49.346;9.522;2023-01-30T04:44:55;12.32;;;8.70;;
10440;SDS011;5268;49.346;9.522;2023-01-30T04:49:57;12.97;;;9.50;;
10440;SDS011;5268;49.346;9.522;2023-01-30T04:55:00;13.17;;;9.57;;
10440;SDS011;5268;49.346;9.522;2023-01-30T05:00:02;12.00;;;8.43;;
10440;SDS011;5268;49.346;9.522;2023-01-30T05:05:05;11.47;;;7.93;;
10440;SDS011;5268;49.346;9.522;2023-01-30T05:10:11;13.27;;;9.63;;
10440;SDS011;5268;49.346;9.522;2023-01-30T05:15:13;13.00;;;8.73;;
10440;SDS011;5268;49.346;9.522;2023-01-30T05:20:15;13.07;;;9.57;;
10440;SDS011;5268;49.346;9.522;2023-01-30T05:25:18;11.97;;;8.43;;
10440;SDS011;5268;49.346;9.522;2023-01-30T05:30:20;12.07;;;8.90;;
10440;SDS011;5268;49.346;9.522;2023-01-30T05:35:22;12.05;;;8.93;;
10440;SDS011;5268;49.346;9.522;2023-01-30T05:40:26;11.65;;;8.27;;
10440;SDS011;5268;49.346;9.522;2023-01-30T05:45:28;13.60;;;9.35;;
10440;SDS011;5268;49.346;9.522;2023-01-30T05:50:30;11.13;;;8.07;;
10440;SDS011;5268;49.346;9.522;2023-01-30T05:55:34;14.20;;;8.70;;
10440;SDS011;5268;49.346;9.522;2023-01-30T06:00:36;12.27;;;8.53;;
10440;SDS011;5268;49.346;9.522;2023-01-30T06:05:38;10.47;;;7.27;;
10440;SDS011;5268;49.346;9.522;2023-01-30T06:10:42;12.63;;;8.57;;
10440;SDS011;5268;49.346;9.522;2023-01-30T06:15:44;13.32;;;8.05;;
10440;SDS011;5268;49.346;9.522;2023-01-30T06:20:46;11.50;;;8.05;;
10440;SDS011;5268;49.346;9.522;2023-01-30T06:25:51;11.40;;;8.77;;
10440;SDS011;5268;49.346;9.522;2023-01-30T06:30:53;11.83;;;8.50;;
10440;SDS011;5268;49.346;9.522;2023-01-30T06:35:55;11.27;;;8.05;;
10440;SDS011;5268;49.346;9.522;2023-01-30T06:40:59;11.40;;;8.15;;
10440;SDS011;5268;49.346;9.522;2023-01-30T06:46:00;13.00;;;9.23;;
10440;SDS011;5268;49.346;9.522;2023-01-30T06:51:03;15.40;;;10.80;;
10440;SDS011;5268;49.346;9.522;2023-01-30T06:56:07;11.02;;;8.15;;
10440;SDS011;5268;49.346;9.522;2023-01-30T07:01:09;11.33;;;7.83;;
10440;SDS011;5268;49.346;9.522;2023-01-30T07:06:11;12.13;;;8.23;;
10440;SDS011;5268;49.346;9.522;2023-01-30T07:11:15;11.90;;;8.85;;
10440;SDS011;5268;49.346;9.522;2023-01-30T07:16:17;11.45;;;7.25;;
10440;SDS011;5268;49.346;9.522;2023-01-30T07:21:19;10.32;;;7.53;;
10440;SDS011;5268;49.346;9.522;2023-01-30T07:26:22;10.73;;;7.57;;
10440;SDS011;5268;49.346;9.522;2023-01-30T07:31:25;10.95;;;6.85;;
10440;SDS011;5268;49.346;9.522;2023-01-30T07:36:26;10.90;;;7.25;;
10440;SDS011;5268;49.346;9.522;2023-01-30T07:41:30;10.48;;;6.80;;
10440;SDS011;5268;49.346;9.522;2023-01-30T07:46:32;10.05;;;6.85;;
10440;SDS011;5268;49.346;9.522;2023-01-30T07:51:34;17.00;;;10.13;;
10440;SDS011;5268;49.346;9.522;2023-01-30T07:56:38;11.70;;;8.55;;
10440;SDS011;5268;49.346;9.522;2023-01-30T08:01:40;8.60;;;6.00;;
10440;SDS011;5268;49.346;9.522;2023-01-30T08:06:42;9.48;;;6.70;;
10440;SDS011;5268;49.346;9.522;2023-01-30T08:11:45;9.75;;;6.53;;
10440;SDS011;5268;49.346;9.522;2023-01-30T08:16:47;7.82;;;6.32;;
10440;SDS011;5268;49.346;9.522;2023-01-30T08:21:51;9.63;;;7.13;;
10440;SDS011;5268;49.346;9.522;2023-01-30T08:26:55;8.48;;;5.35;;
10440;SDS011;5268;49.346;9.522;2023-01-30T08:31:57;7.78;;;5.75;;
10440;SDS011;5268;49.346;9.522;2023-01-30T08:36:59;8.45;;;5.65;;
10440;SDS011;5268;49.346;9.522;2023-01-30T08:42:02;8.45;;;5.88;;
10440;SDS011;5268;49.346;9.522;2023-01-30T08:47:04;7.35;;;4.90;;
10440;SDS011;5268;49.346;9.522;2023-01-30T08:52:07;6.90;;;4.95;;
10440;SDS011;5268;49.346;9.522;2023-01-30T08:57:12;6.15;;;4.82;;
10440;SDS011;5268;49.346;9.522;2023-01-30T09:02:15;6.60;;;4.95;;
10440;SDS011;5268;49.346;9.522;2023-01-30T09:07:17;6.55;;;4.40;;
10440;SDS011;5268;49.346;9.522;2023-01-30T09:12:20;8.48;;;6.00;;
10440;SDS011;5268;49.346;9.522;2023-01-30T09:17:22;7.25;;;5.15;;
10440;SDS011;5268;49.346;9.522;2023-01-30T09:22:24;7.03;;;5.88;;
10440;SDS011;5268;49.346;9.522;2023-01-30T09:27:28;6.45;;;5.05;;
10440;SDS011;5268;49.346;9.522;2023-01-30T09:32:30;6.93;;;4.70;;
10440;SDS011;5268;49.346;9.522;2023-01-30T09:37:32;6.90;;;5.07;;
10440;SDS011;5268;49.346;9.522;2023-01-30T09:42:45;5.97;;;4.50;;
10440;SDS011;5268;49.346;9.522;2023-01-30T09:53:33;6.32;;;4.35;;
10440;SDS011;5268;49.346;9.522;2023-01-30T09:58:43;7.10;;;5.18;;
10440;SDS011;5268;49.346;9.522;2023-01-30T10:03:54;6.63;;;5.03;;
10440;SDS011;5268;49.346;9.522;2023-01-30T10:09:06;7.13;;;5.25;;
10440;SDS011;5268;49.346;9.522;2023-01-30T10:19:50;7.75;;;5.30;;
10440;SDS011;5268;49.346;9.522;2023-01-30T10:25:02;7.03;;;5.20;;
10440;SDS011;5268;49.346;9.522;2023-01-30T10:30:14;7.43;;;5.38;;
10440;SDS011;5268;49.346;9.522;2023-01-30T10:35:19;9.60;;;6.43;;
10440;SDS011;5268;49.346;9.522;2023-01-30T10:40:25;6.60;;;4.93;;
10440;SDS011;5268;49.346;9.522;2023-01-30T10:45:34;7.85;;;5.35;;
10440;SDS011;5268;49.346;9.522;2023-01-30T10:50:44;8.48;;;6.03;;
10440;SDS011;5268;49.346;9.522;2023-01-30T10:55:51;6.97;;;5.43;;
10440;SDS011;5268;49.346;9.522;2023-01-30T11:01:03;8.32;;;5.20;;
10440;SDS011;5268;49.346;9.522;2023-01-30T11:06:12;7.97;;;5.90;;
10440;SDS011;5268;49.346;9.522;2023-01-30T11:11:22;9.15;;;6.57;;
10440;SDS011;5268;49.346;9.522;2023-01-30T11:16:28;7.07;;;5.45;;
10440;SDS011;5268;49.346;9.522;2023-01-30T11:21:32;7.30;;;5.72;;
10440;SDS011;5268;49.346;9.522;2023-01-30T11:26:34;7.30;;;5.75;;
10440;SDS011;5268;49.346;9.522;2023-01-30T11:31:38;7.57;;;5.65;;
10440;SDS011;5268;49.346;9.522;2023-01-30T11:36:40;7.93;;;5.78;;
10440;SDS011;5268;49.346;9.522;2023-01-30T11:41:44;7.32;;;5.80;;
10440;SDS011;5268;49.346;9.522;2023-01-30T11:47:02;7.95;;;5.78;;
10440;SDS011;5268;49.346;9.522;2023-01-30T11:52:08;9.20;;;6.55;;
10440;SDS011;5268;49.346;9.522;2023-01-30T11:57:12;8.02;;;5.78;;
10440;SDS011;5268;49.346;9.522;2023-01-30T12:02:19;6.93;;;5.35;;
10440;SDS011;5268;49.346;9.522;2023-01-30T12:07:25;7.55;;;5.53;;
10440;SDS011;5268;49.346;9.522;2023-01-30T12:12:29;7.55;;;6.75;;
10440;SDS011;5268;49.346;9.522;2023-01-30T12:17:37;10.23;;;9.13;;
10440;SDS011;5268;49.346;9.522;2023-01-30T12:22:48;8.18;;;6.35;;
10440;SDS011;5268;49.346;9.522;2023-01-30T12:28:02;7.65;;;5.95;;
10440;SDS011;5268;49.346;9.522;2023-01-30T12:33:16;8.23;;;6.10;;
10440;SDS011;5268;49.346;9.522;2023-01-30T12:38:25;8.23;;;5.95;;
10440;SDS011;5268;49.346;9.522;2023-01-30T12:43:45;8.32;;;6.05;;
10440;SDS011;5268;49.346;9.522;2023-01-30T12:49:01;8.05;;;5.78;;
10440;SDS011;5268;49.346;9.522;2023-01-30T12:54:11;8.07;;;5.95;;
10440;SDS011;5268;49.346;9.522;2023-01-30T12:59:27;6.78;;;5.53;;
10440;SDS011;5268;49.346;9.522;2023-01-30T13:04:40;8.57;;;6.68;;
10440;SDS011;5268;49.346;9.522;2023-01-30T13:09:49;6.57;;;5.20;;
10440;SDS011;5268;49.346;9.522;2023-01-30T13:14:59;8.52;;;5.55;;
10440;SDS011;5268;49.346;9.522;2023-01-30T13:20:13;9.30;;;5.72;;
10440;SDS011;5268;49.346;9.522;2023-01-30T13:25:22;8.63;;;6.30;;
10440;SDS011;5268;49.346;9.522;2023-01-30T13:30:31;7.82;;;5.78;;
10440;SDS011;5268;49.346;9.522;2023-01-30T13:35:40;7.03;;;5.45;;
10440;SDS011;5268;49.346;9.522;2023-01-30T13:40:44;6.90;;;5.05;;
10440;SDS011;5268;49.346;9.522;2023-01-30T13:45:48;6.85;;;5.22;;
10440;SDS011;5268;49.346;9.522;2023-01-30T13:50:59;7.32;;;5.53;;
10440;SDS011;5268;49.346;9.522;2023-01-30T13:56:14;7.65;;;5.32;;
10440;SDS011;5268;49.346;9.522;2023-01-30T14:01:21;9.95;;;7.35;;
10440;SDS011;5268;49.346;9.522;2023-01-30T14:06:32;8.73;;;6.53;;
10440;SDS011;5268;49.346;9.522;2023-01-30T14:11:38;6.90;;;5.43;;
10440;SDS011;5268;49.346;9.522;2023-01-30T14:16:49;7.32;;;5.80;;
10440;SDS011;5268;49.346;9.522;2023-01-30T14:21:55;8.50;;;6.20;;
10440;SDS011;5268;49.346;9.522;2023-01-30T14:27:03;8.95;;;6.18;;
10440;SDS011;5268;49.346;9.522;2023-01-30T14:32:34;7.72;;;6.40;;
10440;SDS011;5268;49.346;9.522;2023-01-30T14:48:51;7.65;;;5.95;;
10440;SDS011;5268;49.346;9.522;2023-01-30T14:54:02;8.10;;;6.00;;
10440;SDS011;5268;49.346;9.522;2023-01-30T14:59:17;7.75;;;6.18;;
10440;SDS011;5268;49.346;9.522;2023-01-30T15:04:25;8.38;;;6.57;;
10440;SDS011;5268;49.346;9.522;2023-01-30T15:09:31;8.68;;;6.07;;
10440;SDS011;5268;49.346;9.522;2023-01-30T15:14:34;8.23;;;5.97;;
10440;SDS011;5268;49.346;9.522;2023-01-30T15:19:47;8.05;;;5.30;;
10440;SDS011;5268;49.346;9.522;2023-01-30T15:25:14;8.30;;;6.10;;
10440;SDS011;5268;49.346;9.522;2023-01-30T15:30:29;6.75;;;5.55;;
10440;SDS011;5268;49.346;9.522;2023-01-30T15:35:48;7.90;;;5.40;;
10440;SDS011;5268;49.346;9.522;2023-01-30T15:40:52;10.15;;;7.72;;
10440;SDS011;5268;49.346;9.522;2023-01-30T15:45:59;9.98;;;5.30;;
10440;SDS011;5268;49.346;9.522;2023-01-30T15:51:10;6.28;;;5.40;;
10440;SDS011;5268;49.346;9.522;2023-01-30T15:56:18;8.02;;;5.38;;
10440;SDS011;5268;49.346;9.522;2023-01-30T16:01:23;7.32;;;5.40;;
10440;SDS011;5268;49.346;9.522;2023-01-30T16:06:29;8.32;;;5.40;;
10440;SDS011;5268;49.346;9.522;2023-01-30T16:11:36;11.15;;;7.03;;
10440;SDS011;5268;49.346;9.522;2023-01-30T16:16:40;8.00;;;5.60;;
10440;SDS011;5268;49.346;9.522;2023-01-30T16:21:47;7.07;;;5.28;;
10440;SDS011;5268;49.346;9.522;2023-01-30T16:26:52;8.35;;;6.32;;
10440;SDS011;5268;49.346;9.522;2023-01-30T16:31:57;8.60;;;6.53;;
10440;SDS011;5268;49.346;9.522;2023-01-30T16:37:01;8.57;;;6.07;;
10440;SDS011;5268;49.346;9.522;2023-01-30T16:42:19;8.30;;;6.05;;
10440;SDS011;5268;49.346;9.522;2023-01-30T16:47:25;7.63;;;6.18;;
10440;SDS011;5268;49.346;9.522;2023-01-30T16:52:30;7.90;;;5.72;;
10440;SDS011;5268;49.346;9.522;2023-01-30T16:57:38;18.00;;;12.20;;
10440;SDS011;5268;49.346;9.522;2023-01-30T17:02:42;11.77;;;8.80;;
10440;SDS011;5268;49.346;9.522;2023-01-30T17:07:51;9.15;;;8.02;;
10440;SDS011;5268;49.346;9.522;2023-01-30T17:12:56;10.43;;;8.30;;
10440;SDS011;5268;49.346;9.522;2023-01-30T17:17:58;9.52;;;7.05;;
10440;SDS011;5268;49.346;9.522;2023-01-30T17:23:02;8.50;;;6.03;;
10440;SDS011;5268;49.346;9.522;2023-01-30T17:28:10;10.55;;;6.15;;
10440;SDS011;5268;49.346;9.522;2023-01-30T17:33:17;8.73;;;6.40;;
10440;SDS011;5268;49.346;9.522;2023-01-30T17:38:19;7.65;;;5.72;;
10440;SDS011;5268;49.346;9.522;2023-01-30T17:43:22;7.90;;;5.95;;
10440;SDS011;5268;49.346;9.522;2023-01-30T17:48:25;6.40;;;5.45;;
10440;SDS011;5268;49.346;9.522;2023-01-30T17:53:27;9.15;;;6.63;;
10440;SDS011;5268;49.346;9.522;2023-01-30T17:58:30;11.77;;;7.22;;
10440;SDS011;5268;49.346;9.522;2023-01-30T18:03:32;9.73;;;5.93;;
10440;SDS011;5268;49.346;9.522;2023-01-30T18:08:34;8.02;;;5.95;;
10440;SDS011;5268;49.346;9.522;2023-01-30T18:13:38;8.18;;;6.28;;
10440;SDS011;5268;49.346;9.522;2023-01-30T18:18:41;9.02;;;7.00;;
10440;SDS011;5268;49.346;9.522;2023-01-30T18:23:43;9.20;;;6.43;;
10440;SDS011;5268;49.346;9.522;2023-01-30T18:28:47;8.25;;;6.15;;
10440;SDS011;5268;49.346;9.522;2023-01-30T18:33:49;8.35;;;6.13;;
10440;SDS011;5268;49.346;9.522;2023-01-30T18:38:54;10.25;;;6.68;;
10440;SDS011;5268;49.346;9.522;2023-01-30T18:43:58;8.18;;;6.10;;
10440;SDS011;5268;49.346;9.522;2023-01-30T18:49:02;8.10;;;6.40;;
10440;SDS011;5268;49.346;9.522;2023-01-30T18:54:05;10.63;;;7.70;;
10440;SDS011;5268;49.346;9.522;2023-01-30T18:59:09;8.18;;;6.82;;
10440;SDS011;5268;49.346;9.522;2023-01-30T19:04:11;8.65;;;6.45;;
10440;SDS011;5268;49.346;9.522;2023-01-30T19:09:14;8.27;;;6.80;;
10440;SDS011;5268;49.346;9.522;2023-01-30T19:14:19;8.75;;;6.57;;
10440;SDS011;5268;49.346;9.522;2023-01-30T19:19:21;8.85;;;6.55;;
10440;SDS011;5268;49.346;9.522;2023-01-30T19:24:24;13.27;;;9.40;;
10440;SDS011;5268;49.346;9.522;2023-01-30T19:29:31;11.85;;;8.50;;
10440;SDS011;5268;49.346;9.522;2023-01-30T19:34:33;8.48;;;6.63;;
10440;SDS011;5268;49.346;9.522;2023-01-30T19:39:35;7.97;;;6.75;;
10440;SDS011;5268;49.346;9.522;2023-01-30T19:44:39;8.23;;;6.65;;
10440;SDS011;5268;49.346;9.522;2023-01-30T19:49:42;7.72;;;6.55;;
10440;SDS011;5268;49.346;9.522;2023-01-30T19:54:45;9.20;;;6.60;;
10440;SDS011;5268;49.346;9.522;2023-01-30T19:59:48;9.85;;;7.00;;
10440;SDS011;5268;49.346;9.522;2023-01-30T20:04:50;9.32;;;7.10;;
10440;SDS011;5268;49.346;9.522;2023-01-30T20:09:55;8.90;;;6.70;;
10440;SDS011;5268;49.346;9.522;2023-01-30T20:14:58;9.50;;;7.07;;
10440;SDS011;5268;49.346;9.522;2023-01-30T20:20:02;10.77;;;6.60;;
10440;SDS011;5268;49.346;9.522;2023-01-30T20:25:06;10.02;;;6.88;;
10440;SDS011;5268;49.346;9.522;2023-01-30T20:30:11;10.23;;;6.95;;
10440;SDS011;5268;49.346;9.522;2023-01-30T20:35:13;9.95;;;7.05;;
10440;SDS011;5268;49.346;9.522;2023-01-30T20:40:16;9.27;;;6.20;;
10440;SDS011;5268;49.346;9.522;2023-01-30T20:45:20;9.00;;;7.07;;
10440;SDS011;5268;49.346;9.522;2023-01-30T20:50:25;11.18;;;7.00;;
10440;SDS011;5268;49.346;9.522;2023-01-30T20:55:28;9.88;;;6.47;;
10440;SDS011;5268;49.346;9.522;2023-01-30T21:00:32;11.77;;;7.30;;
10440;SDS011;5268;49.346;9.522;2023-01-30T21:05:36;9.10;;;7.13;;
10440;SDS011;5268;49.346;9.522;2023-01-30T21:10:39;12.88;;;8.20;;
10440;SDS011;5268;49.346;9.522;2023-01-30T21:15:47;8.38;;;6.63;;
10440;SDS011;5268;49.346;9.522;2023-01-30T21:20:59;8.05;;;6.43;;
10440;SDS011;5268;49.346;9.522;2023-01-30T21:26:02;10.70;;;6.13;;
10440;SDS011;5268;49.346;9.522;2023-01-30T21:31:09;9.05;;;6.55;;
10440;SDS011;5268;49.346;9.522;2023-01-30T21:36:13;9.70;;;6.43;;
10440;SDS011;5268;49.346;9.522;2023-01-30T21:41:15;8.07;;;6.20;;
10440;SDS011;5268;49.346;9.522;2023-01-30T21:46:40;10.38;;;6.93;;
10440;SDS011;5268;49.346;9.522;2023-01-30T21:51:45;11.07;;;6.95;;
10440;SDS011;5268;49.346;9.522;2023-01-30T21:56:48;9.93;;;6.68;;
10440;SDS011;5268;49.346;9.522;2023-01-30T22:01:51;11.43;;;8.13;;
10440;SDS011;5268;49.346;9.522;2023-01-30T22:06:54;9.88;;;7.40;;
10440;SDS011;5268;49.346;9.522;2023-01-30T22:11:56;14.05;;;7.63;;
10440;SDS011;5268;49.346;9.522;2023-01-30T22:16:59;9.68;;;6.70;;
10440;SDS011;5268;49.346;9.522;2023-01-30T22:22:01;11.05;;;6.93;;
10440;SDS011;5268;49.346;9.522;2023-01-30T22:27:03;10.27;;;6.53;;
10440;SDS011;5268;49.346;9.522;2023-01-30T22:32:06;10.52;;;7.20;;
10440;SDS011;5268;49.346;9.522;2023-01-30T22:37:09;9.07;;;6.65;;
10440;SDS011;5268;49.346;9.522;2023-01-30T22:42:10;10.75;;;6.70;;
10440;SDS011;5268;49.346;9.522;2023-01-30T22:47:14;10.25;;;6.30;;
10440;SDS011;5268;49.346;9.522;2023-01-30T22:52:16;11.48;;;6.97;;
